sensor_id;sensor_type;location;lat;lon;timestamp;temperature;humidity
60717;DHT22;46566;52.700;6.192;2022-12-18T00:02:06;-3.10;99.90
60717;DHT22;46566;52.700;6.192;2022-12-18T00:04:31;-3.10;99.90
60717;DHT22;46566;52.700;6.192;2022-12-18T00:06:57;-3.10;99.90
60717;DHT22;46566;52.700;6.192;2022-12-18T00:21:36;-3.10;99.90
60717;DHT22;46566;52.700;6.192;2022-12-18T00:24:02;-3.10;99.90
60717;DHT22;46566;52.700;6.192;2022-12-18T00:26:31;-3.10;99.90
60717;DHT22;46566;52.700;6.192;2022-12-18T00:29:02;-3.10;99.90
60717;DHT22;46566;52.700;6.192;2022-12-18T00:31:29;-3.10;99.90
60717;DHT22;46566;52.700;6.192;2022-12-18T00:33:56;-3.20;99.90
60717;DHT22;46566;52.700;6.192;2022-12-18T00:36:25;-3.20;99.90
60717;DHT22;46566;52.700;6.192;2022-12-18T00:38:52;-3.20;99.90
60717;DHT22;46566;52.700;6.192;2022-12-18T00:41:18;-3.20;99.90
60717;DHT22;46566;52.700;6.192;2022-12-18T00:44:05;-3.20;99.90
60717;DHT22;46566;52.700;6.192;2022-12-18T00:46:31;-3.20;99.90
60717;DHT22;46566;52.700;6.192;2022-12-18T00:48:57;-3.20;99.90
60717;DHT22;46566;52.700;6.192;2022-12-18T00:51:24;-3.20;99.90
60717;DHT22;46566;52.700;6.192;2022-12-18T00:53:49;-3.20;99.90
60717;DHT22;46566;52.700;6.192;2022-12-18T00:56:15;-3.20;99.90
60717;DHT22;46566;52.700;6.192;2022-12-18T00:58:41;-3.20;99.90
60717;DHT22;46566;52.700;6.192;2022-12-18T01:01:07;-3.20;99.90
60717;DHT22;46566;52.700;6.192;2022-12-18T01:03:33;-3.20;99.90
60717;DHT22;46566;52.700;6.192;2022-12-18T01:05:59;-3.20;99.90
60717;DHT22;46566;52.700;6.192;2022-12-18T01:08:25;-3.20;99.90
60717;DHT22;46566;52.700;6.192;2022-12-18T01:10:50;-3.20;99.90
60717;DHT22;46566;52.700;6.192;2022-12-18T01:13:16;-3.20;99.90
60717;DHT22;46566;52.700;6.192;2022-12-18T01:15:48;-3.30;99.90
60717;DHT22;46566;52.700;6.192;2022-12-18T01:18:14;-3.40;99.90
60717;DHT22;46566;52.700;6.192;2022-12-18T01:20:40;-3.30;99.90
60717;DHT22;46566;52.700;6.192;2022-12-18T01:23:05;-3.40;99.90
60717;DHT22;46566;52.700;6.192;2022-12-18T01:25:36;-3.30;99.90
60717;DHT22;46566;52.700;6.192;2022-12-18T01:28:21;-3.30;99.90
60717;DHT22;46566;52.700;6.192;2022-12-18T01:30:46;-3.40;99.90
60717;DHT22;46566;52.700;6.192;2022-12-18T01:33:12;-3.40;99.90
60717;DHT22;46566;52.700;6.192;2022-12-18T01:35:44;-3.50;99.90
60717;DHT22;46566;52.700;6.192;2022-12-18T01:38:09;-3.50;99.90
60717;DHT22;46566;52.700;6.192;2022-12-18T01:40:35;-3.60;99.90
60717;DHT22;46566;52.700;6.192;2022-12-18T01:43:02;-3.60;99.90
60717;DHT22;46566;52.700;6.192;2022-12-18T01:45:30;-3.60;99.90
60717;DHT22;46566;52.700;6.192;2022-12-18T01:48:02;-3.70;99.90
60717;DHT22;46566;52.700;6.192;2022-12-18T01:53:17;-3.70;99.90
60717;DHT22;46566;52.700;6.192;2022-12-18T01:55:53;-3.70;99.90
60717;DHT22;46566;52.700;6.192;2022-12-18T01:58:24;-3.80;99.90
60717;DHT22;46566;52.700;6.192;2022-12-18T02:00:54;-3.80;99.90
60717;DHT22;46566;52.700;6.192;2022-12-18T02:03:20;-3.80;99.90
60717;DHT22;46566;52.700;6.192;2022-12-18T02:05:58;-3.80;99.90
60717;DHT22;46566;52.700;6.192;2022-12-18T02:18:41;-3.80;99.90
60717;DHT22;46566;52.700;6.192;2022-12-18T02:24:34;-4.00;99.90
60717;DHT22;46566;52.700;6.192;2022-12-18T02:27:05;-4.10;99.90
60717;DHT22;46566;52.700;6.192;2022-12-18T02:29:50;-4.20;99.90
60717;DHT22;46566;52.700;6.192;2022-12-18T02:32:22;-4.20;99.90
60717;DHT22;46566;52.700;6.192;2022-12-18T02:34:51;-4.20;99.90
60717;DHT22;46566;52.700;6.192;2022-12-18T02:37:18;-4.30;99.90
60717;DHT22;46566;52.700;6.192;2022-12-18T02:39:49;-4.30;99.90
60717;DHT22;46566;52.700;6.192;2022-12-18T02:42:16;-4.30;99.90
60717;DHT22;46566;52.700;6.192;2022-12-18T02:44:48;-4.30;99.90
60717;DHT22;46566;52.700;6.192;2022-12-18T02:47:20;-4.40;99.90
60717;DHT22;46566;52.700;6.192;2022-12-18T02:50:12;-4.40;99.90
60717;DHT22;46566;52.700;6.192;2022-12-18T02:52:55;-4.40;99.90
60717;DHT22;46566;52.700;6.192;2022-12-18T02:55:36;-4.40;99.90
60717;DHT22;46566;52.700;6.192;2022-12-18T02:58:40;-4.50;99.90
60717;DHT22;46566;52.700;6.192;2022-12-18T03:01:43;-4.50;99.90
60717;DHT22;46566;52.700;6.192;2022-12-18T03:04:16;-4.50;99.90
60717;DHT22;46566;52.700;6.192;2022-12-18T03:06:48;-4.50;99.90
60717;DHT22;46566;52.700;6.192;2022-12-18T03:09:20;-4.50;99.90
60717;DHT22;46566;52.700;6.192;2022-12-18T03:11:52;-4.60;99.90
60717;DHT22;46566;52.700;6.192;2022-12-18T03:14:38;-4.60;99.90
60717;DHT22;46566;52.700;6.192;2022-12-18T03:17:11;-4.60;99.90
60717;DHT22;46566;52.700;6.192;2022-12-18T03:19:38;-4.60;99.90
60717;DHT22;46566;52.700;6.192;2022-12-18T03:22:07;-4.70;99.90
60717;DHT22;46566;52.700;6.192;2022-12-18T03:24:41;-4.70;99.90
60717;DHT22;46566;52.700;6.192;2022-12-18T03:27:12;-4.70;99.90
60717;DHT22;46566;52.700;6.192;2022-12-18T03:29:51;-4.70;99.90
60717;DHT22;46566;52.700;6.192;2022-12-18T03:32:26;-4.80;99.90
60717;DHT22;46566;52.700;6.192;2022-12-18T03:34:55;-4.80;99.90
60717;DHT22;46566;52.700;6.192;2022-12-18T03:37:23;-4.90;99.90
60717;DHT22;46566;52.700;6.192;2022-12-18T03:39:51;-4.80;99.90
60717;DHT22;46566;52.700;6.192;2022-12-18T03:45:12;-4.90;99.90
60717;DHT22;46566;52.700;6.192;2022-12-18T03:47:53;-4.90;99.90
60717;DHT22;46566;52.700;6.192;2022-12-18T03:53:17;-4.90;99.90
60717;DHT22;46566;52.700;6.192;2022-12-18T03:55:48;-4.90;99.90
60717;DHT22;46566;52.700;6.192;2022-12-18T03:58:18;-4.90;99.90
60717;DHT22;46566;52.700;6.192;2022-12-18T04:00:55;-4.90;99.90
60717;DHT22;46566;52.700;6.192;2022-12-18T04:03:23;-4.90;99.90
60717;DHT22;46566;52.700;6.192;2022-12-18T04:05:52;-5.00;99.90
60717;DHT22;46566;52.700;6.192;2022-12-18T04:08:21;-4.90;99.90
60717;DHT22;46566;52.700;6.192;2022-12-18T04:10:56;-4.90;99.90
60717;DHT22;46566;52.700;6.192;2022-12-18T04:13:31;-4.90;99.90
60717;DHT22;46566;52.700;6.192;2022-12-18T04:15:59;-5.00;99.90
60717;DHT22;46566;52.700;6.192;2022-12-18T04:18:26;-5.00;99.90
60717;DHT22;46566;52.700;6.192;2022-12-18T04:20:51;-5.00;99.90
60717;DHT22;46566;52.700;6.192;2022-12-18T04:23:17;-5.00;99.90
60717;DHT22;46566;52.700;6.192;2022-12-18T04:25:43;-5.00;99.90
60717;DHT22;46566;52.700;6.192;2022-12-18T04:28:14;-5.00;99.90
60717;DHT22;46566;52.700;6.192;2022-12-18T04:30:40;-5.00;99.90
60717;DHT22;46566;52.700;6.192;2022-12-18T04:33:10;-5.00;99.90
60717;DHT22;46566;52.700;6.192;2022-12-18T04:35:36;-5.00;99.90
60717;DHT22;46566;52.700;6.192;2022-12-18T04:38:02;-5.10;99.90
60717;DHT22;46566;52.700;6.192;2022-12-18T04:40:28;-5.00;99.90
60717;DHT22;46566;52.700;6.192;2022-12-18T04:42:54;-5.00;99.90
60717;DHT22;46566;52.700;6.192;2022-12-18T04:45:19;-5.00;99.90
60717;DHT22;46566;52.700;6.192;2022-12-18T04:47:45;-5.00;99.90
60717;DHT22;46566;52.700;6.192;2022-12-18T04:50:10;-5.00;99.90
60717;DHT22;46566;52.700;6.192;2022-12-18T04:52:36;-5.00;99.90
60717;DHT22;46566;52.700;6.192;2022-12-18T04:55:02;-5.00;99.90
60717;DHT22;46566;52.700;6.192;2022-12-18T04:57:28;-5.00;99.90
60717;DHT22;46566;52.700;6.192;2022-12-18T04:59:54;-5.00;99.90
60717;DHT22;46566;52.700;6.192;2022-12-18T05:02:19;-5.00;99.90
60717;DHT22;46566;52.700;6.192;2022-12-18T05:04:45;-5.00;99.90
60717;DHT22;46566;52.700;6.192;2022-12-18T05:07:11;-5.00;99.90
60717;DHT22;46566;52.700;6.192;2022-12-18T05:09:36;-5.00;99.90
60717;DHT22;46566;52.700;6.192;2022-12-18T05:12:02;-5.00;99.90
60717;DHT22;46566;52.700;6.192;2022-12-18T05:14:27;-5.00;99.90
60717;DHT22;46566;52.700;6.192;2022-12-18T05:16:54;-5.00;99.90
60717;DHT22;46566;52.700;6.192;2022-12-18T05:19:20;-5.00;99.90
60717;DHT22;46566;52.700;6.192;2022-12-18T05:21:46;-5.00;99.90
60717;DHT22;46566;52.700;6.192;2022-12-18T05:24:12;-5.00;99.90
60717;DHT22;46566;52.700;6.192;2022-12-18T05:26:37;-5.00;99.90
60717;DHT22;46566;52.700;6.192;2022-12-18T05:29:03;-5.00;99.90
60717;DHT22;46566;52.700;6.192;2022-12-18T05:31:29;-5.00;99.90
60717;DHT22;46566;52.700;6.192;2022-12-18T05:33:54;-5.00;99.90
60717;DHT22;46566;52.700;6.192;2022-12-18T05:36:20;-5.00;99.90
60717;DHT22;46566;52.700;6.192;2022-12-18T05:38:46;-5.10;99.90
60717;DHT22;46566;52.700;6.192;2022-12-18T05:41:11;-5.10;99.90
60717;DHT22;46566;52.700;6.192;2022-12-18T05:43:39;-5.00;99.90
60717;DHT22;46566;52.700;6.192;2022-12-18T05:46:13;-5.10;99.90
60717;DHT22;46566;52.700;6.192;2022-12-18T05:48:39;-5.10;99.90
60717;DHT22;46566;52.700;6.192;2022-12-18T05:51:07;-5.10;99.90
60717;DHT22;46566;52.700;6.192;2022-12-18T05:53:33;-5.10;99.90
60717;DHT22;46566;52.700;6.192;2022-12-18T05:56:02;-5.10;99.90
60717;DHT22;46566;52.700;6.192;2022-12-18T05:58:28;-5.10;99.90
60717;DHT22;46566;52.700;6.192;2022-12-18T06:00:54;-5.10;99.90
60717;DHT22;46566;52.700;6.192;2022-12-18T06:03:19;-5.10;99.90
60717;DHT22;46566;52.700;6.192;2022-12-18T06:05:45;-5.10;99.90
60717;DHT22;46566;52.700;6.192;2022-12-18T06:08:12;-5.10;99.90
60717;DHT22;46566;52.700;6.192;2022-12-18T06:10:38;-5.10;99.90
60717;DHT22;46566;52.700;6.192;2022-12-18T06:13:05;-5.10;99.90
60717;DHT22;46566;52.700;6.192;2022-12-18T06:15:31;-5.10;99.90
60717;DHT22;46566;52.700;6.192;2022-12-18T06:17:57;-5.10;99.90
60717;DHT22;46566;52.700;6.192;2022-12-18T06:20:23;-5.10;99.90
60717;DHT22;46566;52.700;6.192;2022-12-18T06:22:48;-5.10;99.90
60717;DHT22;46566;52.700;6.192;2022-12-18T06:25:14;-5.20;99.90
60717;DHT22;46566;52.700;6.192;2022-12-18T06:27:40;-5.20;99.90
60717;DHT22;46566;52.700;6.192;2022-12-18T06:30:06;-5.20;99.90
60717;DHT22;46566;52.700;6.192;2022-12-18T06:32:32;-5.20;99.90
60717;DHT22;46566;52.700;6.192;2022-12-18T06:34:58;-5.20;99.90
60717;DHT22;46566;52.700;6.192;2022-12-18T06:37:23;-5.20;99.90
60717;DHT22;46566;52.700;6.192;2022-12-18T06:39:53;-5.10;99.90
60717;DHT22;46566;52.700;6.192;2022-12-18T06:42:19;-5.20;99.90
60717;DHT22;46566;52.700;6.192;2022-12-18T06:44:47;-5.20;99.90
60717;DHT22;46566;52.700;6.192;2022-12-18T06:47:13;-5.20;99.90
60717;DHT22;46566;52.700;6.192;2022-12-18T06:49:38;-5.20;99.90
60717;DHT22;46566;52.700;6.192;2022-12-18T06:52:04;-5.20;99.90
60717;DHT22;46566;52.700;6.192;2022-12-18T06:54:29;-5.20;99.90
60717;DHT22;46566;52.700;6.192;2022-12-18T06:56:55;-5.20;99.90
60717;DHT22;46566;52.700;6.192;2022-12-18T06:59:21;-5.20;99.90
60717;DHT22;46566;52.700;6.192;2022-12-18T07:01:47;-5.20;99.90
60717;DHT22;46566;52.700;6.192;2022-12-18T07:04:12;-5.20;99.90
60717;DHT22;46566;52.700;6.192;2022-12-18T07:06:38;-5.20;99.90
60717;DHT22;46566;52.700;6.192;2022-12-18T07:09:04;-5.20;99.90
60717;DHT22;46566;52.700;6.192;2022-12-18T07:11:31;-5.20;99.90
60717;DHT22;46566;52.700;6.192;2022-12-18T07:13:57;-5.20;99.90
60717;DHT22;46566;52.700;6.192;2022-12-18T07:16:23;-5.20;99.90
60717;DHT22;46566;52.700;6.192;2022-12-18T07:18:48;-5.20;99.90
60717;DHT22;46566;52.700;6.192;2022-12-18T07:21:17;-5.20;99.90
60717;DHT22;46566;52.700;6.192;2022-12-18T07:23:43;-5.20;99.90
60717;DHT22;46566;52.700;6.192;2022-12-18T07:26:12;-5.20;99.90
60717;DHT22;46566;52.700;6.192;2022-12-18T07:28:39;-5.20;99.90
60717;DHT22;46566;52.700;6.192;2022-12-18T07:31:07;-5.20;99.90
60717;DHT22;46566;52.700;6.192;2022-12-18T07:33:34;-5.20;99.90
60717;DHT22;46566;52.700;6.192;2022-12-18T07:36:01;-5.30;99.90
60717;DHT22;46566;52.700;6.192;2022-12-18T07:38:28;-5.20;99.90
60717;DHT22;46566;52.700;6.192;2022-12-18T07:40:54;-5.30;99.90
60717;DHT22;46566;52.700;6.192;2022-12-18T07:43:19;-5.20;99.90
60717;DHT22;46566;52.700;6.192;2022-12-18T07:45:45;-5.20;99.90
60717;DHT22;46566;52.700;6.192;2022-12-18T07:48:11;-5.20;99.90
60717;DHT22;46566;52.700;6.192;2022-12-18T07:50:37;-5.20;99.90
60717;DHT22;46566;52.700;6.192;2022-12-18T07:53:03;-5.20;99.90
60717;DHT22;46566;52.700;6.192;2022-12-18T07:55:31;-5.30;99.90
60717;DHT22;46566;52.700;6.192;2022-12-18T07:57:57;-5.20;99.90
60717;DHT22;46566;52.700;6.192;2022-12-18T08:00:25;-5.20;99.90
60717;DHT22;46566;52.700;6.192;2022-12-18T08:02:51;-5.20;99.90
60717;DHT22;46566;52.700;6.192;2022-12-18T08:05:16;-5.20;99.90
60717;DHT22;46566;52.700;6.192;2022-12-18T08:07:42;-5.20;99.90
60717;DHT22;46566;52.700;6.192;2022-12-18T08:10:08;-5.20;99.90
60717;DHT22;46566;52.700;6.192;2022-12-18T08:12:34;-5.20;99.90
60717;DHT22;46566;52.700;6.192;2022-12-18T08:14:59;-5.10;99.90
60717;DHT22;46566;52.700;6.192;2022-12-18T08:17:25;-5.10;99.90
60717;DHT22;46566;52.700;6.192;2022-12-18T08:19:51;-5.10;99.90
60717;DHT22;46566;52.700;6.192;2022-12-18T08:22:16;-5.10;99.90
60717;DHT22;46566;52.700;6.192;2022-12-18T08:24:42;-5.10;99.90
60717;DHT22;46566;52.700;6.192;2022-12-18T08:27:08;-5.10;99.90
60717;DHT22;46566;52.700;6.192;2022-12-18T08:29:33;-5.00;99.90
60717;DHT22;46566;52.700;6.192;2022-12-18T08:31:59;-5.00;99.90
60717;DHT22;46566;52.700;6.192;2022-12-18T08:34:25;-5.00;99.90
60717;DHT22;46566;52.700;6.192;2022-12-18T08:36:51;-4.90;99.90
60717;DHT22;46566;52.700;6.192;2022-12-18T08:39:16;-4.90;99.90
60717;DHT22;46566;52.700;6.192;2022-12-18T08:41:42;-4.80;99.90
60717;DHT22;46566;52.700;6.192;2022-12-18T08:44:08;-4.80;99.90
60717;DHT22;46566;52.700;6.192;2022-12-18T08:46:52;-4.80;99.90
60717;DHT22;46566;52.700;6.192;2022-12-18T08:49:18;-4.70;99.90
60717;DHT22;46566;52.700;6.192;2022-12-18T08:51:43;-4.70;99.90
60717;DHT22;46566;52.700;6.192;2022-12-18T08:54:12;-4.50;99.90
60717;DHT22;46566;52.700;6.192;2022-12-18T08:56:39;-4.50;99.90
60717;DHT22;46566;52.700;6.192;2022-12-18T08:59:04;-4.40;99.90
60717;DHT22;46566;52.700;6.192;2022-12-18T09:01:30;-4.30;99.90
60717;DHT22;46566;52.700;6.192;2022-12-18T09:03:55;-4.20;99.90
60717;DHT22;46566;52.700;6.192;2022-12-18T09:06:22;-4.20;99.90
60717;DHT22;46566;52.700;6.192;2022-12-18T09:08:48;-4.10;99.90
60717;DHT22;46566;52.700;6.192;2022-12-18T09:11:22;-4.00;99.90
60717;DHT22;46566;52.700;6.192;2022-12-18T09:13:49;-4.00;99.90
60717;DHT22;46566;52.700;6.192;2022-12-18T09:16:15;-3.90;99.90
60717;DHT22;46566;52.700;6.192;2022-12-18T09:18:41;-3.80;99.90
60717;DHT22;46566;52.700;6.192;2022-12-18T09:21:13;-3.70;99.90
60717;DHT22;46566;52.700;6.192;2022-12-18T09:23:39;-3.50;99.90
60717;DHT22;46566;52.700;6.192;2022-12-18T09:26:05;-3.40;99.90
60717;DHT22;46566;52.700;6.192;2022-12-18T09:28:31;-3.30;99.90
60717;DHT22;46566;52.700;6.192;2022-12-18T09:30:57;-3.20;99.90
60717;DHT22;46566;52.700;6.192;2022-12-18T09:33:22;-3.20;99.90
60717;DHT22;46566;52.700;6.192;2022-12-18T09:35:48;-3.10;99.90
60717;DHT22;46566;52.700;6.192;2022-12-18T09:38:17;-3.10;99.90
60717;DHT22;46566;52.700;6.192;2022-12-18T09:40:46;-3.00;99.90
60717;DHT22;46566;52.700;6.192;2022-12-18T09:43:24;-2.90;99.90
60717;DHT22;46566;52.700;6.192;2022-12-18T09:45:55;-2.80;99.90
60717;DHT22;46566;52.700;6.192;2022-12-18T09:48:26;-2.60;99.90
60717;DHT22;46566;52.700;6.192;2022-12-18T09:50:57;-2.50;99.90
60717;DHT22;46566;52.700;6.192;2022-12-18T09:53:26;-2.50;99.90
60717;DHT22;46566;52.700;6.192;2022-12-18T09:55:53;-2.40;99.90
60717;DHT22;46566;52.700;6.192;2022-12-18T09:58:27;-2.40;99.90
60717;DHT22;46566;52.700;6.192;2022-12-18T10:00:54;-2.40;99.90
60717;DHT22;46566;52.700;6.192;2022-12-18T10:03:20;-2.50;99.90
60717;DHT22;46566;52.700;6.192;2022-12-18T10:06:05;-2.50;99.90
60717;DHT22;46566;52.700;6.192;2022-12-18T10:17:35;-2.40;99.90
60717;DHT22;46566;52.700;6.192;2022-12-18T10:20:44;-2.30;99.90
60717;DHT22;46566;52.700;6.192;2022-12-18T10:23:39;-2.30;99.90
60717;DHT22;46566;52.700;6.192;2022-12-18T10:26:11;-2.30;99.90
60717;DHT22;46566;52.700;6.192;2022-12-18T10:28:40;-2.30;99.90
60717;DHT22;46566;52.700;6.192;2022-12-18T10:31:20;-2.20;99.90
60717;DHT22;46566;52.700;6.192;2022-12-18T10:33:47;-2.20;99.90
60717;DHT22;46566;52.700;6.192;2022-12-18T10:36:13;-2.20;99.90
60717;DHT22;46566;52.700;6.192;2022-12-18T10:38:39;-2.10;99.90
60717;DHT22;46566;52.700;6.192;2022-12-18T10:44:17;-2.00;99.90
60717;DHT22;46566;52.700;6.192;2022-12-18T10:46:52;-2.00;99.90
60717;DHT22;46566;52.700;6.192;2022-12-18T10:49:29;-1.90;99.90
60717;DHT22;46566;52.700;6.192;2022-12-18T10:54:32;-1.80;99.90
60717;DHT22;46566;52.700;6.192;2022-12-18T10:57:17;-1.80;99.90
60717;DHT22;46566;52.700;6.192;2022-12-18T10:59:52;-1.80;99.90
60717;DHT22;46566;52.700;6.192;2022-12-18T11:04:53;-1.70;99.90
60717;DHT22;46566;52.700;6.192;2022-12-18T11:07:18;-1.70;99.90
60717;DHT22;46566;52.700;6.192;2022-12-18T11:10:00;-1.60;99.90
60717;DHT22;46566;52.700;6.192;2022-12-18T11:12:28;-1.60;99.90
60717;DHT22;46566;52.700;6.192;2022-12-18T11:14:55;-1.60;99.90
60717;DHT22;46566;52.700;6.192;2022-12-18T11:17:26;-1.50;99.90
60717;DHT22;46566;52.700;6.192;2022-12-18T11:20:04;-1.50;99.90
60717;DHT22;46566;52.700;6.192;2022-12-18T11:22:34;-1.40;99.90
60717;DHT22;46566;52.700;6.192;2022-12-18T11:25:24;-1.40;99.90
60717;DHT22;46566;52.700;6.192;2022-12-18T11:27:59;-1.30;99.90
60717;DHT22;46566;52.700;6.192;2022-12-18T11:30:30;-1.30;99.90
60717;DHT22;46566;52.700;6.192;2022-12-18T11:35:51;-1.30;99.90
60717;DHT22;46566;52.700;6.192;2022-12-18T11:38:26;-1.30;99.90
60717;DHT22;46566;52.700;6.192;2022-12-18T11:43:41;-1.30;99.90
60717;DHT22;46566;52.700;6.192;2022-12-18T11:46:14;-1.20;99.90
60717;DHT22;46566;52.700;6.192;2022-12-18T11:48:49;-1.20;99.90
60717;DHT22;46566;52.700;6.192;2022-12-18T11:51:26;-1.20;99.90
60717;DHT22;46566;52.700;6.192;2022-12-18T11:53:54;-1.10;99.90
60717;DHT22;46566;52.700;6.192;2022-12-18T11:56:48;-1.10;99.90
60717;DHT22;46566;52.700;6.192;2022-12-18T12:01:55;-1.10;99.90
60717;DHT22;46566;52.700;6.192;2022-12-18T12:04:56;-1.10;99.90
60717;DHT22;46566;52.700;6.192;2022-12-18T12:07:27;-1.00;99.90
60717;DHT22;46566;52.700;6.192;2022-12-18T12:10:19;-1.00;99.90
60717;DHT22;46566;52.700;6.192;2022-12-18T12:15:39;-0.90;99.90
60717;DHT22;46566;52.700;6.192;2022-12-18T12:20:56;-0.90;99.90
60717;DHT22;46566;52.700;6.192;2022-12-18T12:23:48;-0.90;99.90
60717;DHT22;46566;52.700;6.192;2022-12-18T12:26:30;-0.80;99.90
60717;DHT22;46566;52.700;6.192;2022-12-18T12:29:13;-0.80;99.90
60717;DHT22;46566;52.700;6.192;2022-12-18T12:39:44;-0.70;99.90
60717;DHT22;46566;52.700;6.192;2022-12-18T12:42:46;-0.70;99.90
60717;DHT22;46566;52.700;6.192;2022-12-18T12:53:42;-0.60;99.90
60717;DHT22;46566;52.700;6.192;2022-12-18T12:56:11;-0.50;99.90
60717;DHT22;46566;52.700;6.192;2022-12-18T12:59:02;-0.50;99.90
60717;DHT22;46566;52.700;6.192;2022-12-18T13:07:45;-0.50;99.90
60717;DHT22;46566;52.700;6.192;2022-12-18T13:15:44;-0.40;99.90
60717;DHT22;46566;52.700;6.192;2022-12-18T13:18:11;-0.40;99.90
60717;DHT22;46566;52.700;6.192;2022-12-18T13:20:44;-0.50;99.90
60717;DHT22;46566;52.700;6.192;2022-12-18T13:25:53;-0.40;99.90
60717;DHT22;46566;52.700;6.192;2022-12-18T13:28:51;-0.40;99.90
60717;DHT22;46566;52.700;6.192;2022-12-18T13:34:18;-0.40;99.90
60717;DHT22;46566;52.700;6.192;2022-12-18T13:36:45;-0.40;99.90
60717;DHT22;46566;52.700;6.192;2022-12-18T13:39:21;-0.40;99.90
60717;DHT22;46566;52.700;6.192;2022-12-18T13:41:50;-0.40;99.90
60717;DHT22;46566;52.700;6.192;2022-12-18T13:44:36;-0.40;99.90
60717;DHT22;46566;52.700;6.192;2022-12-18T13:47:05;-0.40;99.90
60717;DHT22;46566;52.700;6.192;2022-12-18T13:49:49;-0.40;99.90
60717;DHT22;46566;52.700;6.192;2022-12-18T13:52:21;-0.40;99.90
60717;DHT22;46566;52.700;6.192;2022-12-18T13:54:52;-0.40;99.90
60717;DHT22;46566;52.700;6.192;2022-12-18T13:57:30;-0.40;99.90
60717;DHT22;46566;52.700;6.192;2022-12-18T13:59:56;-0.40;99.90
60717;DHT22;46566;52.700;6.192;2022-12-18T14:02:24;-0.40;99.90
60717;DHT22;46566;52.700;6.192;2022-12-18T14:04:51;-0.40;99.90
60717;DHT22;46566;52.700;6.192;2022-12-18T14:07:25;-0.40;99.90
60717;DHT22;46566;52.700;6.192;2022-12-18T14:09:59;-0.40;99.90
60717;DHT22;46566;52.700;6.192;2022-12-18T14:12:29;-0.40;99.90
60717;DHT22;46566;52.700;6.192;2022-12-18T14:18:03;-0.40;99.90
60717;DHT22;46566;52.700;6.192;2022-12-18T14:20:32;-0.40;99.90
60717;DHT22;46566;52.700;6.192;2022-12-18T14:22:58;-0.40;99.90
60717;DHT22;46566;52.700;6.192;2022-12-18T14:25:29;-0.40;99.90
60717;DHT22;46566;52.700;6.192;2022-12-18T14:30:40;-0.40;99.90
60717;DHT22;46566;52.700;6.192;2022-12-18T14:33:13;-0.40;99.90
60717;DHT22;46566;52.700;6.192;2022-12-18T14:36:02;-0.40;99.90
60717;DHT22;46566;52.700;6.192;2022-12-18T14:38:38;-0.50;99.90
60717;DHT22;46566;52.700;6.192;2022-12-18T14:41:09;-0.40;99.90
60717;DHT22;46566;52.700;6.192;2022-12-18T14:43:52;-0.50;99.90
60717;DHT22;46566;52.700;6.192;2022-12-18T14:46:37;-0.50;99.90
60717;DHT22;46566;52.700;6.192;2022-12-18T14:49:17;-0.50;99.90
60717;DHT22;46566;52.700;6.192;2022-12-18T14:51:57;-0.50;99.90
60717;DHT22;46566;52.700;6.192;2022-12-18T14:54:25;-0.50;99.90
60717;DHT22;46566;52.700;6.192;2022-12-18T14:57:24;-0.50;99.90
60717;DHT22;46566;52.700;6.192;2022-12-18T14:59:50;-0.50;99.90
60717;DHT22;46566;52.700;6.192;2022-12-18T15:02:26;-0.50;99.90
60717;DHT22;46566;52.700;6.192;2022-12-18T15:17:39;-0.50;99.90
60717;DHT22;46566;52.700;6.192;2022-12-18T15:20:09;-0.50;99.90
60717;DHT22;46566;52.700;6.192;2022-12-18T15:22:37;-0.50;99.90
60717;DHT22;46566;52.700;6.192;2022-12-18T15:25:19;-0.50;99.90
60717;DHT22;46566;52.700;6.192;2022-12-18T15:27:47;-0.50;99.90
60717;DHT22;46566;52.700;6.192;2022-12-18T15:30:18;-0.50;99.90
60717;DHT22;46566;52.700;6.192;2022-12-18T15:32:44;-0.50;99.90
60717;DHT22;46566;52.700;6.192;2022-12-18T15:37:39;-0.40;99.90
60717;DHT22;46566;52.700;6.192;2022-12-18T15:40:07;-0.40;99.90
60717;DHT22;46566;52.700;6.192;2022-12-18T15:42:33;-0.40;99.90
60717;DHT22;46566;52.700;6.192;2022-12-18T15:45:17;-0.40;99.90
60717;DHT22;46566;52.700;6.192;2022-12-18T15:47:44;-0.40;99.90
60717;DHT22;46566;52.700;6.192;2022-12-18T15:50:10;-0.40;99.90
60717;DHT22;46566;52.700;6.192;2022-12-18T15:52:46;-0.40;99.90
60717;DHT22;46566;52.700;6.192;2022-12-18T15:55:14;-0.40;99.90
60717;DHT22;46566;52.700;6.192;2022-12-18T15:57:59;-0.40;99.90
60717;DHT22;46566;52.700;6.192;2022-12-18T16:00:25;-0.40;99.90
60717;DHT22;46566;52.700;6.192;2022-12-18T16:02:50;-0.40;99.90
60717;DHT22;46566;52.700;6.192;2022-12-18T16:05:17;-0.40;99.90
60717;DHT22;46566;52.700;6.192;2022-12-18T16:07:44;-0.40;99.90
60717;DHT22;46566;52.700;6.192;2022-12-18T16:10:10;-0.40;99.90
60717;DHT22;46566;52.700;6.192;2022-12-18T16:12:36;-0.40;99.90
60717;DHT22;46566;52.700;6.192;2022-12-18T16:15:03;-0.40;99.90
60717;DHT22;46566;52.700;6.192;2022-12-18T16:17:29;-0.40;99.90
60717;DHT22;46566;52.700;6.192;2022-12-18T16:19:55;-0.40;99.90
60717;DHT22;46566;52.700;6.192;2022-12-18T16:22:22;-0.40;99.90
60717;DHT22;46566;52.700;6.192;2022-12-18T16:24:50;-0.40;99.90
60717;DHT22;46566;52.700;6.192;2022-12-18T16:27:16;-0.40;99.90
60717;DHT22;46566;52.700;6.192;2022-12-18T16:29:42;-0.40;99.90
60717;DHT22;46566;52.700;6.192;2022-12-18T16:32:16;-0.40;99.90
60717;DHT22;46566;52.700;6.192;2022-12-18T16:34:42;-0.40;99.90
60717;DHT22;46566;52.700;6.192;2022-12-18T16:37:11;-0.40;99.90
60717;DHT22;46566;52.700;6.192;2022-12-18T16:39:37;-0.40;99.90
60717;DHT22;46566;52.700;6.192;2022-12-18T16:42:18;-0.40;99.90
60717;DHT22;46566;52.700;6.192;2022-12-18T16:44:45;-0.40;99.90
60717;DHT22;46566;52.700;6.192;2022-12-18T16:47:11;-0.40;99.90
60717;DHT22;46566;52.700;6.192;2022-12-18T16:49:38;-0.40;99.90
60717;DHT22;46566;52.700;6.192;2022-12-18T16:52:05;-0.30;99.90
60717;DHT22;46566;52.700;6.192;2022-12-18T16:54:31;-0.30;99.90
60717;DHT22;46566;52.700;6.192;2022-12-18T16:56:59;-0.30;99.90
60717;DHT22;46566;52.700;6.192;2022-12-18T16:59:26;-0.30;99.90
60717;DHT22;46566;52.700;6.192;2022-12-18T17:01:51;-0.30;99.90
60717;DHT22;46566;52.700;6.192;2022-12-18T17:04:17;-0.30;99.90
60717;DHT22;46566;52.700;6.192;2022-12-18T17:06:44;-0.30;99.90
60717;DHT22;46566;52.700;6.192;2022-12-18T17:09:14;-0.30;99.90
60717;DHT22;46566;52.700;6.192;2022-12-18T17:11:40;-0.30;99.90
60717;DHT22;46566;52.700;6.192;2022-12-18T17:14:13;-0.30;99.90
60717;DHT22;46566;52.700;6.192;2022-12-18T17:16:39;-0.30;99.90
60717;DHT22;46566;52.700;6.192;2022-12-18T17:19:05;-0.30;99.90
60717;DHT22;46566;52.700;6.192;2022-12-18T17:21:31;-0.30;99.90
60717;DHT22;46566;52.700;6.192;2022-12-18T17:24:01;-0.30;99.90
60717;DHT22;46566;52.700;6.192;2022-12-18T17:26:28;-0.30;99.90
60717;DHT22;46566;52.700;6.192;2022-12-18T17:28:58;-0.30;99.90
60717;DHT22;46566;52.700;6.192;2022-12-18T17:31:26;-0.20;99.90
60717;DHT22;46566;52.700;6.192;2022-12-18T17:33:52;-0.30;99.90
60717;DHT22;46566;52.700;6.192;2022-12-18T17:36:20;-0.20;99.90
60717;DHT22;46566;52.700;6.192;2022-12-18T17:38:51;-0.20;99.90
60717;DHT22;46566;52.700;6.192;2022-12-18T17:41:18;-0.20;99.90
60717;DHT22;46566;52.700;6.192;2022-12-18T17:43:59;-0.20;99.90
60717;DHT22;46566;52.700;6.192;2022-12-18T17:46:26;-0.20;99.90
60717;DHT22;46566;52.700;6.192;2022-12-18T17:48:54;-0.20;99.90